Cuyamungue, New Mexico
Current Conditions -  °F | °C
As of 8:53 AM on Friday 24 Oct 2014 (Local Time) from KSAF Reporting Station
Clear Clear  
Wind Chill: 51°   Ceiling: Unl
Heat Index: 51°   Visibility: 10mi
Dew Point: 31°   Wind: 14mph
Humidity: 46%   Direction: 360°N
Pressure: 30.36"   Gusts: NA
Location:  35.7017°N, 105.921°W
Report Text: KSAF 241453Z 36012KT 10SM CLR 11/M01 A3036 RMK AO2 SLP223 T01061006 53017
Loading
Personal Weather Stations






























Interactive Weather Map
Tropical Storm Tracking
New forecast layout! Learn more

10-Day Weather Forecast

Advertisements
Track Severe Weather on mobile